Time;durP1;ratioP1;P1;durP2;ratioP2;P2;SDS_P1;SDS_P2;PMS_P1;PMS_P2;Temp;Humidity;BMP_temperature;BMP_pressure;BME280_temperature;BME280_humidity;BME280_pressure;Samples;Min_cycle;Max_cycle;Signal;HPM_P1;HPM_P2
2022/01/13 00:01:21;;;;;;;13.35;6.28;;;7.10;99.90;;;;;;5016698;28;20041;-73
2022/01/13 00:03:54;;;;;;;18.58;6.22;;;7.00;99.90;;;;;;5031435;28;20118;-73
2022/01/13 00:06:21;;;;;;;16.88;6.03;;;7.00;99.90;;;;;;5022085;28;20045;-72
2022/01/13 00:08:48;;;;;;;13.95;6.70;;;6.90;99.90;;;;;;5022411;28;20136;-72
2022/01/13 00:11:14;;;;;;;13.35;5.57;;;6.80;99.90;;;;;;5029874;28;20048;-72
2022/01/13 00:14:11;;;;;;;14.75;6.28;;;6.90;99.90;;;;;;5033769;28;20041;-72
2022/01/13 00:19:17;;;;;;;16.05;7.22;;;7.10;99.90;;;;;;5035550;28;20168;-72
2022/01/13 00:22:03;;;;;;;11.43;6.15;;;7.00;99.90;;;;;;5039521;28;20499;-73
2022/01/13 00:24:30;;;;;;;13.70;6.07;;;7.00;99.90;;;;;;5037552;28;20433;-73
2022/01/13 00:26:56;;;;;;;20.40;6.60;;;7.10;99.90;;;;;;5025565;28;20544;-72
2022/01/13 00:29:29;;;;;;;12.50;5.30;;;7.00;99.90;;;;;;5014010;28;20037;-71
2022/01/13 00:31:55;;;;;;;10.95;5.47;;;6.90;99.90;;;;;;5007999;28;20548;-71
2022/01/13 00:34:21;;;;;;;13.05;6.03;;;6.90;99.90;;;;;;5025364;28;20048;-71
2022/01/13 00:36:48;;;;;;;13.00;5.82;;;6.90;99.90;;;;;;5026934;28;20041;-72
2022/01/13 00:39:14;;;;;;;14.77;5.80;;;6.90;99.90;;;;;;5017237;28;20037;-72
2022/01/13 00:41:42;;;;;;;15.05;6.90;;;7.00;99.90;;;;;;5040185;28;20124;-71
2022/01/13 00:44:08;;;;;;;13.13;6.35;;;6.90;99.90;;;;;;5040617;28;20044;-72
2022/01/13 00:46:46;;;;;;;15.07;6.10;;;6.80;99.90;;;;;;5037572;28;20045;-71
2022/01/13 00:49:14;;;;;;;12.45;6.30;;;6.80;99.90;;;;;;5037468;28;20063;-71
2022/01/13 00:51:42;;;;;;;15.27;6.25;;;6.80;99.90;;;;;;5043470;28;20127;-70
2022/01/13 00:54:09;;;;;;;13.60;6.38;;;6.80;99.90;;;;;;5039803;28;20041;-71
2022/01/13 00:56:36;;;;;;;13.23;6.32;;;6.90;99.90;;;;;;5041349;28;20437;-71
2022/01/13 00:59:09;;;;;;;12.18;6.30;;;7.00;99.90;;;;;;5042275;28;20513;-71
2022/01/13 01:01:37;;;;;;;17.17;7.15;;;6.90;99.90;;;;;;5031244;28;20036;-72
2022/01/13 01:04:04;;;;;;;13.48;6.60;;;6.90;99.90;;;;;;5040419;28;20052;-70
2022/01/13 01:06:32;;;;;;;13.77;6.75;;;6.80;99.90;;;;;;5044249;28;20049;-71
2022/01/13 01:08:59;;;;;;;16.88;7.05;;;6.80;99.90;;;;;;5039079;28;20045;-71
2022/01/13 01:11:26;;;;;;;15.63;7.05;;;6.80;99.90;;;;;;5040914;28;20391;-73
2022/01/13 01:13:55;;;;;;;13.85;7.28;;;6.70;99.90;;;;;;5033537;28;20064;-72
2022/01/13 01:16:22;;;;;;;12.98;7.43;;;6.70;99.90;;;;;;5020865;28;20024;-71
2022/01/13 01:19:06;;;;;;;15.68;7.13;;;6.60;99.90;;;;;;5027110;28;20041;-72
2022/01/13 01:22:36;;;;;;;18.83;7.90;;;6.70;99.90;;;;;;5037610;28;20071;-72
2022/01/13 01:26:53;;;;;;;19.95;8.63;;;6.60;99.90;;;;;;5036106;28;20075;-70
2022/01/13 01:29:36;;;;;;;18.55;7.97;;;6.60;99.90;;;;;;5039737;28;20056;-72
2022/01/13 01:32:08;;;;;;;17.25;8.40;;;6.60;99.90;;;;;;5040153;28;20044;-74
2022/01/13 01:34:54;;;;;;;17.33;8.52;;;6.60;99.90;;;;;;5043171;28;20045;-73
2022/01/13 01:37:23;;;;;;;20.52;9.23;;;6.60;99.90;;;;;;5037369;28;20061;-71
2022/01/13 01:39:51;;;;;;;12.68;7.82;;;6.50;99.90;;;;;;5039929;28;20090;-72
2022/01/13 01:42:19;;;;;;;16.60;8.75;;;6.40;99.90;;;;;;5035781;28;20045;-72
2022/01/13 01:44:48;;;;;;;16.80;8.60;;;6.40;99.90;;;;;;5041549;28;20515;-71
2022/01/13 01:47:16;;;;;;;19.73;9.20;;;6.40;99.90;;;;;;5033974;28;20341;-72
2022/01/13 01:49:49;;;;;;;20.27;8.02;;;6.40;99.90;;;;;;5034689;28;20045;-71
2022/01/13 01:52:17;;;;;;;16.98;8.38;;;6.50;99.90;;;;;;5038673;28;20060;-71
2022/01/13 01:54:45;;;;;;;15.70;8.63;;;6.50;99.90;;;;;;5038011;28;20598;-71
2022/01/13 01:57:12;;;;;;;18.50;9.23;;;6.50;99.90;;;;;;5041690;28;20048;-71
2022/01/13 01:59:41;;;;;;;18.42;9.13;;;6.50;99.90;;;;;;5048975;28;20038;-72
2022/01/13 02:02:10;;;;;;;19.80;10.55;;;6.50;99.90;;;;;;5037350;28;20033;-71
2022/01/13 02:04:36;;;;;;;17.63;9.43;;;6.70;99.90;;;;;;5041269;28;20144;-72
2022/01/13 02:07:07;;;;;;;16.70;9.52;;;6.60;99.90;;;;;;5044610;28;20112;-71
2022/01/13 02:09:36;;;;;;;17.13;9.95;;;6.60;99.90;;;;;;5048065;28;20033;-72
2022/01/13 02:12:07;;;;;;;19.67;9.98;;;6.70;99.90;;;;;;5047331;28;20032;-72
2022/01/13 02:14:47;;;;;;;19.98;9.90;;;6.70;99.90;;;;;;5042612;28;20064;-71
2022/01/13 02:17:21;;;;;;;18.05;10.57;;;6.70;99.90;;;;;;5046578;28;20040;-70
2022/01/13 02:19:50;;;;;;;19.30;10.73;;;6.70;99.90;;;;;;5041457;28;20031;-72
2022/01/13 02:22:16;;;;;;;21.88;11.30;;;6.70;99.90;;;;;;5038397;28;20144;-71
2022/01/13 02:24:42;;;;;;;18.15;9.55;;;6.70;99.90;;;;;;5043142;28;20039;-71
2022/01/13 02:27:08;;;;;;;22.08;11.48;;;6.70;99.90;;;;;;5040950;28;20037;-71
2022/01/13 02:29:35;;;;;;;23.40;11.57;;;6.60;99.90;;;;;;5044115;28;20095;-72
2022/01/13 02:32:01;;;;;;;20.58;11.45;;;6.60;99.90;;;;;;5043396;28;20090;-72
2022/01/13 02:34:27;;;;;;;24.45;11.63;;;6.50;99.90;;;;;;5038384;28;20397;-72
2022/01/13 02:36:56;;;;;;;23.75;11.55;;;6.40;99.90;;;;;;5039300;28;20043;-72
2022/01/13 02:39:27;;;;;;;20.27;12.55;;;6.40;99.90;;;;;;5039658;28;22239;-71
2022/01/13 02:41:55;;;;;;;20.20;12.27;;;6.40;99.90;;;;;;5047109;28;20034;-71
2022/01/13 02:44:22;;;;;;;21.63;13.07;;;6.40;99.90;;;;;;5038320;28;20083;-71
2022/01/13 02:49:24;;;;;;;22.55;13.73;;;6.30;99.90;;;;;;5040447;28;20051;-71
2022/01/13 02:51:52;;;;;;;21.60;11.30;;;6.40;99.90;;;;;;5041556;28;20107;-72
2022/01/13 02:54:19;;;;;;;23.42;12.55;;;6.40;99.90;;;;;;5044543;28;20043;-71
2022/01/13 02:56:45;;;;;;;23.90;12.20;;;6.30;99.90;;;;;;5044818;28;20641;-72
2022/01/13 02:59:12;;;;;;;23.55;13.02;;;6.30;99.90;;;;;;5039908;28;20037;-71
2022/01/13 03:01:41;;;;;;;25.38;12.35;;;6.30;99.90;;;;;;5036126;28;20453;-71
2022/01/13 03:04:08;;;;;;;27.35;13.00;;;6.20;99.90;;;;;;5044289;28;20037;-74
2022/01/13 03:06:38;;;;;;;23.40;13.10;;;6.30;99.90;;;;;;5039964;28;20051;-72
2022/01/13 03:09:08;;;;;;;21.40;12.55;;;6.20;99.90;;;;;;5036203;28;20029;-72
2022/01/13 03:11:37;;;;;;;24.35;12.55;;;6.20;99.90;;;;;;5038423;28;20388;-72
2022/01/13 03:14:10;;;;;;;20.88;11.50;;;6.30;99.90;;;;;;5046187;28;20051;-71
2022/01/13 03:16:38;;;;;;;23.05;12.27;;;6.20;99.90;;;;;;5042511;28;20384;-72
2022/01/13 03:19:04;;;;;;;24.75;12.10;;;6.10;99.90;;;;;;5039779;28;20041;-72
2022/01/13 03:21:31;;;;;;;19.55;11.73;;;6.10;99.90;;;;;;5037821;28;20079;-72
2022/01/13 03:23:58;;;;;;;21.30;11.73;;;6.10;99.90;;;;;;5040334;28;20372;-70
2022/01/13 03:26:25;;;;;;;23.45;12.02;;;6.10;99.90;;;;;;5044513;28;20123;-73
2022/01/13 03:28:54;;;;;;;20.60;11.63;;;6.20;99.90;;;;;;5039922;28;20033;-72
2022/01/13 03:31:22;;;;;;;19.95;11.48;;;6.20;99.90;;;;;;5039208;28;20040;-72
2022/01/13 03:33:51;;;;;;;22.63;12.15;;;6.20;99.90;;;;;;5044937;28;20041;-71
2022/01/13 03:36:18;;;;;;;20.13;11.63;;;6.20;99.90;;;;;;5040573;28;20049;-71
2022/01/13 03:38:45;;;;;;;21.30;11.50;;;6.10;99.90;;;;;;5039207;28;20025;-72
2022/01/13 03:41:11;;;;;;;22.65;11.05;;;6.10;99.90;;;;;;5042271;28;20038;-71
2022/01/13 03:43:37;;;;;;;21.42;10.68;;;5.90;99.90;;;;;;5035644;28;20049;-72
2022/01/13 03:46:04;;;;;;;20.45;10.48;;;5.90;99.90;;;;;;5041996;28;20076;-72
2022/01/13 03:48:33;;;;;;;17.65;10.50;;;5.90;99.90;;;;;;5041701;28;20045;-72
2022/01/13 03:51:00;;;;;;;23.42;11.23;;;6.00;99.90;;;;;;5041207;28;20167;-73
2022/01/13 03:53:32;;;;;;;20.45;10.15;;;5.90;99.90;;;;;;5040414;28;20026;-72
2022/01/13 03:56:35;;;;;;;15.73;9.90;;;5.80;99.90;;;;;;5040535;28;20037;-72
2022/01/13 03:59:26;;;;;;;17.35;9.40;;;5.80;99.90;;;;;;5037065;28;20047;-72
2022/01/13 04:01:59;;;;;;;22.08;9.88;;;5.70;99.90;;;;;;5040641;28;20040;-72
2022/01/13 04:04:28;;;;;;;17.10;9.52;;;5.70;99.90;;;;;;5035905;28;20570;-72
2022/01/13 04:07:25;;;;;;;16.95;9.98;;;5.70;99.90;;;;;;5041328;28;20039;-71
2022/01/13 04:09:51;;;;;;;15.93;8.90;;;5.60;99.90;;;;;;5040140;28;20037;-71
2022/01/13 04:12:20;;;;;;;16.77;9.55;;;5.70;99.90;;;;;;5035711;28;20469;-71
2022/01/13 04:14:53;;;;;;;16.48;9.52;;;5.70;99.90;;;;;;5030873;28;20041;-71
2022/01/13 04:17:22;;;;;;;17.67;9.10;;;5.70;99.90;;;;;;5035231;28;20154;-72
2022/01/13 04:19:50;;;;;;;21.40;9.15;;;5.70;99.90;;;;;;5039200;28;20113;-71
2022/01/13 04:22:17;;;;;;;17.52;10.68;;;5.60;99.90;;;;;;5038933;28;20092;-71
2022/01/13 04:24:53;;;;;;;18.30;10.00;;;5.70;99.90;;;;;;5045087;28;20127;-72
2022/01/13 04:27:22;;;;;;;16.90;10.13;;;5.60;99.90;;;;;;5055186;28;20122;-71
2022/01/13 04:30:00;;;;;;;21.30;11.85;;;5.60;99.90;;;;;;5039516;28;20059;-71
2022/01/13 04:32:26;;;;;;;18.67;11.13;;;5.60;99.90;;;;;;5036999;28;20483;-71
2022/01/13 04:34:53;;;;;;;23.25;11.60;;;5.50;99.90;;;;;;5038768;28;20048;-72
2022/01/13 04:37:20;;;;;;;20.33;11.30;;;5.50;99.90;;;;;;5044214;28;20393;-71
2022/01/13 04:39:46;;;;;;;21.02;12.52;;;5.50;99.90;;;;;;5045148;28;20036;-71
2022/01/13 04:42:13;;;;;;;21.25;12.38;;;5.60;99.90;;;;;;5044520;28;20431;-72
2022/01/13 04:44:40;;;;;;;22.30;12.10;;;5.50;99.90;;;;;;5034388;28;20045;-71
2022/01/13 04:47:07;;;;;;;20.02;12.88;;;5.50;99.90;;;;;;5040785;28;20037;-72
2022/01/13 04:49:34;;;;;;;20.15;12.45;;;5.50;99.90;;;;;;5036604;28;20095;-72
2022/01/13 04:52:01;;;;;;;22.08;12.93;;;5.40;99.90;;;;;;5042672;28;20048;-71
2022/01/13 04:54:27;;;;;;;20.42;12.52;;;5.30;99.90;;;;;;5043385;28;20048;-71
2022/01/13 04:57:14;;;;;;;22.65;12.32;;;5.30;99.90;;;;;;5036936;28;20076;-71
2022/01/13 04:59:41;;;;;;;19.25;11.98;;;5.30;99.90;;;;;;5036696;28;20041;-72
2022/01/13 05:02:07;;;;;;;20.90;12.02;;;5.30;99.90;;;;;;5033317;28;20497;-72
2022/01/13 05:04:33;;;;;;;20.05;11.02;;;5.40;99.90;;;;;;5039631;28;20055;-71
2022/01/13 05:06:59;;;;;;;23.83;11.73;;;5.30;99.90;;;;;;5018405;28;20461;-72
2022/01/13 05:09:26;;;;;;;21.55;11.82;;;5.30;99.90;;;;;;5040825;28;20037;-71
2022/01/13 05:11:52;;;;;;;21.30;11.90;;;5.30;99.90;;;;;;5038287;28;20065;-71
2022/01/13 05:14:18;;;;;;;20.42;11.38;;;5.30;99.90;;;;;;5015511;28;20115;-71
2022/01/13 05:17:10;;;;;;;18.80;11.35;;;5.30;99.90;;;;;;5038598;28;20568;-72
2022/01/13 05:19:39;;;;;;;19.40;11.80;;;5.30;99.90;;;;;;5043083;28;20051;-71
2022/01/13 05:24:38;;;;;;;23.20;12.90;;;5.30;99.90;;;;;;5038795;28;20259;-72
2022/01/13 05:27:05;;;;;;;22.65;12.45;;;5.30;99.90;;;;;;5040000;28;20052;-72
2022/01/13 05:29:32;;;;;;;19.40;11.77;;;5.30;99.90;;;;;;5036647;28;20044;-71
2022/01/13 05:31:58;;;;;;;18.55;11.90;;;5.30;99.90;;;;;;5041117;28;20040;-72
2022/01/13 05:34:26;;;;;;;25.50;13.68;;;5.30;99.90;;;;;;5030637;28;20052;-72
2022/01/13 05:36:52;;;;;;;24.13;12.55;;;5.30;99.90;;;;;;5043576;28;20128;-72
2022/01/13 05:39:19;;;;;;;23.80;12.48;;;5.30;99.90;;;;;;5039985;28;20399;-72
2022/01/13 05:41:45;;;;;;;19.48;12.85;;;5.30;99.90;;;;;;5036275;28;20631;-71
2022/01/13 05:44:12;;;;;;;23.17;12.82;;;5.30;99.90;;;;;;5038824;28;20481;-72
2022/01/13 05:46:38;;;;;;;25.33;13.38;;;5.30;99.90;;;;;;5036733;28;20053;-73
2022/01/13 05:49:04;;;;;;;19.58;12.27;;;5.30;99.90;;;;;;5041986;28;20071;-72
2022/01/13 05:51:30;;;;;;;21.75;13.60;;;5.30;99.90;;;;;;5039153;28;20049;-71
2022/01/13 05:53:56;;;;;;;27.17;13.95;;;5.30;99.90;;;;;;5037310;28;20037;-73
2022/01/13 05:56:21;;;;;;;20.88;12.43;;;5.30;99.90;;;;;;5036700;28;20029;-71
2022/01/13 05:58:48;;;;;;;24.20;12.60;;;5.30;99.90;;;;;;5039457;28;20095;-72
2022/01/13 06:01:14;;;;;;;22.83;12.45;;;5.30;99.90;;;;;;5037603;28;20087;-71
2022/01/13 06:03:40;;;;;;;22.23;12.90;;;5.30;99.90;;;;;;5033327;28;20046;-72
2022/01/13 06:06:06;;;;;;;22.55;13.65;;;5.40;99.90;;;;;;5037802;28;20121;-72
2022/01/13 06:08:34;;;;;;;21.48;12.45;;;5.30;99.90;;;;;;5043773;28;20034;-72
2022/01/13 06:11:02;;;;;;;23.15;12.10;;;5.30;99.90;;;;;;5038519;28;20117;-72
2022/01/13 06:13:29;;;;;;;19.83;12.30;;;5.30;99.90;;;;;;5044247;28;20204;-72
2022/01/13 06:15:55;;;;;;;23.67;13.18;;;5.30;99.90;;;;;;5039802;28;20052;-71
2022/01/13 06:18:25;;;;;;;21.55;11.60;;;5.30;99.90;;;;;;5036763;28;20041;-73
2022/01/13 06:20:52;;;;;;;21.83;10.95;;;5.20;99.90;;;;;;5043349;28;20394;-71
2022/01/13 06:23:18;;;;;;;22.52;11.32;;;5.20;99.90;;;;;;5039011;28;20045;-71
2022/01/13 06:25:44;;;;;;;19.73;10.07;;;5.20;99.90;;;;;;5043046;28;20461;-73
2022/01/13 06:28:11;;;;;;;17.27;10.10;;;5.20;99.90;;;;;;5038937;28;20075;-72
2022/01/13 06:30:37;;;;;;;15.70;9.77;;;5.20;99.90;;;;;;5036089;28;20068;-72
2022/01/13 06:33:04;;;;;;;18.80;11.38;;;5.20;99.90;;;;;;5043282;28;20096;-72
2022/01/13 06:35:30;;;;;;;17.75;10.18;;;5.20;99.90;;;;;;5040887;28;20500;-73
2022/01/13 06:37:57;;;;;;;17.83;10.20;;;5.20;99.90;;;;;;5034143;28;20447;-73
2022/01/13 06:40:24;;;;;;;18.48;9.80;;;5.10;99.90;;;;;;5040778;28;20108;-72
2022/01/13 06:42:51;;;;;;;16.17;9.52;;;5.10;99.90;;;;;;5043965;28;20072;-73
2022/01/13 06:45:17;;;;;;;15.35;9.75;;;5.10;99.90;;;;;;5041609;28;20067;-72
2022/01/13 06:47:44;;;;;;;19.83;10.20;;;5.20;99.90;;;;;;5049268;28;20029;-73
2022/01/13 06:50:16;;;;;;;17.60;10.00;;;5.20;99.90;;;;;;5042848;28;20599;-73
2022/01/13 06:52:44;;;;;;;23.48;10.55;;;5.10;99.90;;;;;;5044924;28;20029;-71
2022/01/13 06:55:11;;;;;;;19.27;10.02;;;5.10;99.90;;;;;;5043688;28;20086;-72
2022/01/13 06:57:37;;;;;;;21.30;10.63;;;5.10;99.90;;;;;;5038016;28;20038;-72
2022/01/13 07:00:06;;;;;;;17.73;10.05;;;5.10;99.90;;;;;;5045441;28;20056;-73
2022/01/13 07:02:33;;;;;;;16.92;9.48;;;5.10;99.90;;;;;;5043059;28;20037;-75
2022/01/13 07:04:59;;;;;;;19.95;10.43;;;5.10;99.90;;;;;;5040396;28;20057;-73
2022/01/13 07:07:26;;;;;;;19.13;10.88;;;5.10;99.90;;;;;;5042744;28;20044;-73
2022/01/13 07:09:52;;;;;;;20.50;10.68;;;5.20;99.90;;;;;;5040278;28;20389;-72
2022/01/13 07:12:19;;;;;;;16.23;9.73;;;5.10;99.90;;;;;;5041893;28;20037;-73
2022/01/13 07:14:44;;;;;;;17.02;10.52;;;5.10;99.90;;;;;;5041306;28;20129;-72
2022/01/13 07:17:10;;;;;;;18.00;10.23;;;5.10;99.90;;;;;;5044124;28;20124;-73
2022/01/13 07:19:36;;;;;;;17.00;9.73;;;5.20;99.90;;;;;;5042574;28;20093;-72
2022/01/13 07:22:02;;;;;;;19.02;9.90;;;5.30;99.90;;;;;;5040414;28;20036;-73
2022/01/13 07:24:28;;;;;;;16.83;9.77;;;5.30;99.90;;;;;;5042812;28;20132;-73
2022/01/13 07:26:54;;;;;;;18.33;9.73;;;5.30;99.90;;;;;;5046376;28;20504;-74
2022/01/13 07:29:20;;;;;;;22.73;10.38;;;5.30;99.90;;;;;;5041909;28;20055;-74
2022/01/13 07:31:47;;;;;;;16.48;9.63;;;5.30;99.90;;;;;;5040695;28;20112;-73
2022/01/13 07:34:13;;;;;;;15.77;9.85;;;5.30;99.90;;;;;;5039996;28;20033;-72
2022/01/13 07:36:41;;;;;;;18.20;9.65;;;5.20;99.90;;;;;;5040456;28;20040;-73
2022/01/13 07:39:08;;;;;;;18.02;9.27;;;5.30;99.90;;;;;;5045275;28;20120;-72
2022/01/13 07:41:36;;;;;;;18.02;9.88;;;5.30;99.90;;;;;;5040809;28;20030;-73
2022/01/13 07:44:03;;;;;;;22.13;9.50;;;5.30;99.90;;;;;;5041417;28;20487;-73
2022/01/13 07:46:29;;;;;;;21.75;9.15;;;5.40;99.90;;;;;;5044936;28;20025;-73
2022/01/13 07:48:56;;;;;;;18.35;9.35;;;5.40;99.90;;;;;;5039564;28;20044;-72
2022/01/13 07:51:22;;;;;;;18.83;9.30;;;5.40;99.90;;;;;;5043232;28;20033;-74
2022/01/13 07:53:49;;;;;;;17.13;8.75;;;5.50;99.90;;;;;;5045747;28;20033;-74
2022/01/13 07:56:17;;;;;;;13.35;7.90;;;5.50;99.90;;;;;;5036821;28;20041;-77
2022/01/13 07:58:46;;;;;;;17.65;8.95;;;5.60;99.90;;;;;;5026761;28;20404;-72
2022/01/13 08:01:12;;;;;;;14.95;7.80;;;5.50;99.90;;;;;;5039531;28;20033;-74
2022/01/13 08:03:39;;;;;;;14.00;9.00;;;5.70;99.90;;;;;;5043381;28;20045;-74
2022/01/13 08:06:06;;;;;;;16.15;8.13;;;5.70;99.90;;;;;;5041351;28;20044;-73
2022/01/13 08:08:35;;;;;;;17.13;8.30;;;5.80;99.90;;;;;;5048092;28;20030;-75
2022/01/13 08:11:05;;;;;;;15.70;8.07;;;5.90;99.90;;;;;;5042356;28;20477;-72
2022/01/13 08:13:31;;;;;;;12.27;7.75;;;6.00;99.90;;;;;;5045204;28;20110;-73
2022/01/13 08:16:00;;;;;;;14.95;7.85;;;6.00;99.90;;;;;;5053438;28;20115;-75
2022/01/13 08:21:18;;;;;;;16.77;8.05;;;6.10;99.90;;;;;;5009469;28;20041;-72
2022/01/13 08:23:44;;;;;;;13.18;8.10;;;6.10;99.90;;;;;;5030056;28;20220;-73
2022/01/13 08:26:11;;;;;;;20.42;10.65;;;6.20;99.90;;;;;;5046186;28;20064;-73
2022/01/13 08:28:38;;;;;;;17.13;9.85;;;7.70;99.90;;;;;;5030477;28;20089;-72
2022/01/13 08:31:05;;;;;;;15.05;9.55;;;9.00;99.90;;;;;;5043440;28;20032;-73
2022/01/13 08:33:31;;;;;;;12.85;8.90;;;10.30;99.90;;;;;;5040088;28;20037;-72
2022/01/13 08:35:57;;;;;;;14.63;8.20;;;11.20;99.90;;;;;;5046087;28;20049;-72
2022/01/13 08:38:25;;;;;;;14.75;8.73;;;11.90;99.90;;;;;;5045610;28;20543;-72
2022/01/13 08:40:57;;;;;;;10.40;6.97;;;12.60;99.20;;;;;;5038465;28;20038;-72
2022/01/13 08:43:25;;;;;;;12.30;6.97;;;12.90;98.10;;;;;;5036736;28;20038;-72
2022/01/13 08:45:51;;;;;;;10.13;6.90;;;13.30;97.40;;;;;;5039082;28;20060;-75
2022/01/13 08:48:18;;;;;;;10.40;7.00;;;13.70;96.00;;;;;;5032300;28;20034;-73
2022/01/13 08:50:46;;;;;;;13.30;7.32;;;14.20;95.90;;;;;;5034297;28;20461;-72
2022/01/13 08:53:15;;;;;;;13.18;8.00;;;14.60;95.00;;;;;;5034535;28;20504;-74
2022/01/13 08:55:42;;;;;;;13.73;7.85;;;14.60;94.80;;;;;;5038371;28;20037;-73
2022/01/13 08:58:09;;;;;;;13.38;8.30;;;14.70;94.60;;;;;;5040680;28;20633;-74
2022/01/13 09:00:37;;;;;;;14.27;7.93;;;15.00;94.70;;;;;;5035946;28;20064;-73
2022/01/13 09:03:08;;;;;;;13.38;7.68;;;15.20;94.50;;;;;;5045192;28;20063;-75
2022/01/13 09:05:36;;;;;;;11.82;7.28;;;14.80;94.30;;;;;;5046496;28;20044;-74
2022/01/13 09:08:07;;;;;;;11.00;7.25;;;13.70;94.50;;;;;;5035757;28;20041;-72
2022/01/13 09:10:33;;;;;;;15.32;8.07;;;13.10;95.60;;;;;;5038451;28;20083;-73
2022/01/13 09:13:00;;;;;;;13.23;7.65;;;12.40;96.20;;;;;;5041277;28;20385;-73
2022/01/13 09:15:36;;;;;;;14.52;8.07;;;12.00;96.70;;;;;;5025029;28;20057;-73
2022/01/13 09:18:16;;;;;;;15.85;8.55;;;11.60;97.30;;;;;;5031717;28;20124;-73
2022/01/13 09:20:43;;;;;;;13.10;7.93;;;11.30;97.80;;;;;;4998081;28;20115;-73
2022/01/13 09:23:11;;;;;;;13.23;7.60;;;11.20;98.20;;;;;;5024886;28;20581;-71
2022/01/13 09:25:43;;;;;;;10.80;7.38;;;11.10;98.20;;;;;;5027371;28;20105;-73
2022/01/13 09:28:09;;;;;;;13.80;7.28;;;11.10;98.40;;;;;;5025026;28;20045;-73
2022/01/13 09:30:37;;;;;;;11.55;7.57;;;10.90;98.20;;;;;;5023856;28;20041;-73
2022/01/13 09:33:03;;;;;;;10.48;7.78;;;10.90;98.50;;;;;;5021210;28;20040;-74
2022/01/13 09:35:29;;;;;;;16.15;7.72;;;11.00;98.60;;;;;;5025083;28;20051;-73
2022/01/13 09:37:56;;;;;;;11.98;7.25;;;11.00;98.30;;;;;;5025896;28;20036;-73
2022/01/13 09:40:22;;;;;;;11.52;7.88;;;11.20;98.40;;;;;;5024512;28;20073;-72
2022/01/13 09:42:49;;;;;;;16.20;8.00;;;11.80;98.20;;;;;;5024333;28;20045;-73
2022/01/13 09:45:17;;;;;;;12.93;7.93;;;12.40;97.30;;;;;;5029271;28;20037;-74
2022/01/13 09:47:49;;;;;;;12.27;7.78;;;12.90;97.00;;;;;;5037576;28;20065;-73
2022/01/13 09:50:20;;;;;;;13.60;7.20;;;13.20;96.40;;;;;;5025565;28;20804;-74
2022/01/13 09:52:47;;;;;;;13.43;7.30;;;13.30;96.10;;;;;;5040914;28;20040;-73
2022/01/13 09:55:16;;;;;;;10.02;7.28;;;13.40;96.10;;;;;;5037453;28;20037;-73
2022/01/13 09:57:45;;;;;;;11.32;7.13;;;13.60;96.20;;;;;;5037453;28;20113;-72
2022/01/13 10:00:13;;;;;;;10.18;6.60;;;13.60;95.70;;;;;;5039700;28;20357;-73
2022/01/13 10:02:39;;;;;;;12.10;7.03;;;14.00;96.00;;;;;;5040951;28;20037;-73
2022/01/13 10:05:07;;;;;;;9.18;6.90;;;13.90;95.70;;;;;;5044376;28;20041;-74
2022/01/13 10:07:43;;;;;;;12.75;7.97;;;14.00;95.80;;;;;;5039702;28;20041;-73
2022/01/13 10:10:15;;;;;;;13.27;7.03;;;14.00;95.20;;;;;;5034308;28;20045;-73
2022/01/13 10:12:44;;;;;;;15.50;7.38;;;14.10;95.20;;;;;;5037980;28;20420;-73
2022/01/13 10:18:03;;;;;;;13.27;7.80;;;14.40;94.90;;;;;;5026415;28;20517;-71
2022/01/13 10:20:30;;;;;;;13.63;7.03;;;14.40;94.80;;;;;;5036850;28;20115;-73
2022/01/13 10:23:12;;;;;;;9.25;6.60;;;14.50;94.90;;;;;;5026217;28;20056;-72
2022/01/13 10:25:41;;;;;;;14.70;7.88;;;14.70;94.80;;;;;;5022960;28;20110;-72
2022/01/13 10:28:23;;;;;;;9.40;7.22;;;14.90;94.60;;;;;;5026895;28;20627;-72
2022/01/13 10:30:53;;;;;;;11.90;7.60;;;15.10;94.10;;;;;;5023362;28;20045;-73
2022/01/13 10:33:24;;;;;;;11.20;7.18;;;15.20;93.70;;;;;;5026824;28;20124;-72
2022/01/13 10:36:11;;;;;;;14.20;7.30;;;15.50;94.00;;;;;;5019758;28;20049;-72
2022/01/13 10:38:51;;;;;;;13.13;7.90;;;15.70;93.50;;;;;;5008931;28;20069;-73
2022/01/13 10:41:38;;;;;;;11.18;7.97;;;15.80;93.00;;;;;;5023430;28;20064;-73
2022/01/13 10:44:30;;;;;;;12.32;7.57;;;16.00;93.10;;;;;;5054114;28;20128;-73
2022/01/13 10:47:03;;;;;;;12.18;7.30;;;16.20;92.80;;;;;;5029716;28;20037;-73
2022/01/13 10:49:41;;;;;;;12.98;7.22;;;16.30;92.60;;;;;;5024931;28;20041;-73
2022/01/13 10:52:26;;;;;;;9.25;6.78;;;16.30;92.30;;;;;;5031206;28;20137;-73
2022/01/13 10:54:53;;;;;;;10.43;7.20;;;16.00;92.40;;;;;;5039505;28;20071;-74
2022/01/13 10:57:25;;;;;;;13.82;7.68;;;16.20;92.40;;;;;;5048631;28;20533;-73
2022/01/13 10:59:52;;;;;;;12.00;7.65;;;16.30;92.50;;;;;;5042861;28;20041;-74
2022/01/13 11:02:20;;;;;;;14.80;8.00;;;16.50;92.40;;;;;;5040445;28;20037;-72
2022/01/13 11:04:48;;;;;;;11.55;8.27;;;16.20;92.30;;;;;;5020174;28;20131;-73
2022/01/13 11:07:17;;;;;;;16.52;8.38;;;16.30;92.50;;;;;;5033418;28;20045;-73
2022/01/13 11:09:56;;;;;;;16.95;8.55;;;16.50;92.80;;;;;;5025334;28;20037;-72
2022/01/13 11:12:42;;;;;;;14.05;8.82;;;16.80;92.70;;;;;;5024910;28;20628;-73
2022/01/13 11:15:14;;;;;;;15.80;8.48;;;16.10;93.50;;;;;;5022759;28;20107;-73
2022/01/13 11:17:43;;;;;;;15.80;8.98;;;16.20;93.60;;;;;;5023395;28;20044;-73
2022/01/13 11:20:12;;;;;;;16.60;8.65;;;16.20;94.00;;;;;;5028657;28;20377;-73
2022/01/13 11:22:40;;;;;;;14.80;8.18;;;16.70;93.90;;;;;;5044933;28;20044;-73
2022/01/13 11:25:09;;;;;;;15.48;9.45;;;16.30;93.80;;;;;;5027140;28;20059;-74
2022/01/13 11:27:37;;;;;;;14.68;8.65;;;16.80;93.70;;;;;;5027229;28;20136;-73
2022/01/13 11:30:07;;;;;;;15.27;8.05;;;17.40;93.60;;;;;;5029152;28;20045;-73
2022/01/13 11:32:35;;;;;;;16.27;9.00;;;17.90;92.90;;;;;;5025217;28;20056;-74
2022/01/13 11:35:03;;;;;;;11.63;8.95;;;18.40;92.40;;;;;;5013845;28;20106;-72
2022/01/13 11:37:30;;;;;;;14.50;9.15;;;18.20;92.30;;;;;;5024181;28;20064;-72
2022/01/13 11:39:56;;;;;;;15.18;8.98;;;17.80;92.20;;;;;;5021567;28;20731;-73
2022/01/13 11:42:23;;;;;;;14.02;8.38;;;17.70;92.60;;;;;;5031337;28;20045;-73
2022/01/13 11:45:20;;;;;;;16.33;9.18;;;17.50;92.40;;;;;;5028688;28;20088;-74
2022/01/13 11:48:06;;;;;;;16.17;9.50;;;17.10;92.50;;;;;;5006110;28;23597;-74
2022/01/13 11:50:42;;;;;;;16.88;9.40;;;17.40;92.50;;;;;;5023147;28;20045;-72
2022/01/13 11:53:25;;;;;;;16.52;9.07;;;18.00;92.40;;;;;;5027390;28;20087;-73
2022/01/13 11:56:00;;;;;;;15.00;9.23;;;18.40;91.50;;;;;;5024722;28;20127;-74
2022/01/13 11:58:47;;;;;;;13.68;9.27;;;18.70;91.30;;;;;;5044108;28;20045;-74
2022/01/13 12:01:35;;;;;;;15.93;9.60;;;19.60;90.10;;;;;;5031439;28;20044;-73
2022/01/13 12:04:07;;;;;;;23.63;11.00;;;19.80;90.30;;;;;;5019357;28;20504;-74
2022/01/13 12:06:33;;;;;;;;;;;20.40;89.70;;;;;;5027045;28;20045;-73
2022/01/13 12:08:59;;;;;;;15.32;10.60;;;20.90;88.40;;;;;;5020662;28;19926;-73
2022/01/13 12:11:40;;;;;;;17.58;10.85;;;20.30;87.80;;;;;;5011132;28;20037;-73
2022/01/13 12:14:28;;;;;;;17.13;10.15;;;21.00;87.90;;;;;;5025559;28;20090;-73
2022/01/13 12:16:55;;;;;;;17.40;10.60;;;21.50;87.20;;;;;;5021369;28;20049;-73
2022/01/13 12:19:36;;;;;;;16.55;10.05;;;21.90;86.00;;;;;;5026242;28;20033;-73
2022/01/13 12:22:08;;;;;;;19.70;10.45;;;21.90;84.40;;;;;;5029260;28;20100;-72
2022/01/13 12:24:46;;;;;;;19.55;10.98;;;22.10;84.30;;;;;;5024423;28;20045;-74
2022/01/13 12:27:12;;;;;;;17.83;11.52;;;21.00;83.70;;;;;;5029263;28;20543;-74
2022/01/13 12:29:51;;;;;;;19.70;11.45;;;21.60;84.10;;;;;;5026432;28;20045;-73
2022/01/13 12:32:36;;;;;;;21.80;12.15;;;22.00;83.30;;;;;;5023784;28;20029;-74
2022/01/13 12:35:06;;;;;;;19.27;12.23;;;21.70;83.60;;;;;;5029067;28;20043;-73
2022/01/13 12:37:32;;;;;;;20.73;12.10;;;21.70;83.80;;;;;;5027486;28;20037;-73
2022/01/13 12:40:04;;;;;;;21.00;12.70;;;22.20;82.70;;;;;;5043658;28;20052;-74
2022/01/13 12:42:39;;;;;;;21.30;12.90;;;22.50;82.00;;;;;;5040987;28;20042;-74
2022/01/13 12:47:58;;;;;;;19.10;11.88;;;22.60;80.70;;;;;;5031341;28;20409;-74
2022/01/13 12:50:33;;;;;;;19.65;11.60;;;22.90;80.20;;;;;;5045579;28;20416;-75
2022/01/13 12:53:10;;;;;;;17.17;11.75;;;23.00;78.90;;;;;;5036386;28;20041;-76
2022/01/13 12:55:40;;;;;;;24.38;11.68;;;23.00;78.50;;;;;;5029017;28;20091;-75
2022/01/13 12:58:08;;;;;;;16.38;11.57;;;23.20;78.00;;;;;;5027951;28;20044;-75
2022/01/13 13:00:35;;;;;;;20.58;11.70;;;22.60;78.40;;;;;;5035250;28;20495;-75
2022/01/13 13:03:07;;;;;;;21.63;11.90;;;22.90;78.70;;;;;;5043189;28;20041;-75
2022/01/13 13:05:46;;;;;;;18.77;11.95;;;23.20;77.10;;;;;;5028776;28;20702;-74
2022/01/13 13:08:16;;;;;;;19.40;11.20;;;23.20;76.60;;;;;;5043283;28;20068;-76
2022/01/13 13:10:47;;;;;;;19.13;11.15;;;23.10;76.30;;;;;;5044009;28;20502;-77
2022/01/13 13:13:16;;;;;;;24.10;11.77;;;22.60;76.60;;;;;;5040888;28;20106;-76